ADDS METAR Data INFO
IDs: Format: Raw Decoded Include TAF

Data at: 2236 UTC 11 Dec 2017

KEVV 112154Z 22010KT 10SM CLR 12/00 A2975 RMK AO2 SLP078 T01170000 $
KEVV 112054Z 21016G24KT 10SM CLR 13/00 A2975 RMK AO2 PK WND 19030/1958 SLP076 T01330000 56045 $
KEVV 111954Z 19013G24KT 10SM CLR 13/M01 A2976 RMK AO2 PK WND 21028/1936 SLP077 T01331006 $
KEVV 111854Z 20016G26KT 10SM CLR 12/M01 A2981 RMK AO2 PK WND 19030/1821 PRESFR SLP095 T01221006 $
KEVV 111754Z 20017G25KT 10SM CLR 11/00 A2989 RMK AO2 PK WND 20028/1741 PRESFR SLP123 T01060000 10106 21044 58057 $
KEVV 111654Z 22012KT 10SM CLR 08/00 A2998 RMK AO2 SLP154 T00830000 $
KEVV 111554Z 20010KT 10SM CLR 05/M01 A3004 RMK AO2 SLP174 T00501006 $
KEVV 111454Z 21006KT 10SM CLR 02/M01 A3006 RMK AO2 SLP182 T00221006 56022 $
KEVV 111354Z 00000KT 10SM CLR M01/M02 A3007 RMK AO2 SLP187 T10111017 $
KEVV 111254Z 00000KT 10SM CLR M03/M03 A3009 RMK AO2 SLP194 T10281033 $
KEVV 111154Z AUTO 00000KT 10SM CLR M04/M05 A3012 RMK AO2 SLP204 T10391050 10000 21050 56005 $
KEVV 111054Z AUTO 00000KT 10SM CLR M04/M04 A3012 RMK AO2 SLP204 T10391044 $
KEVV 110954Z AUTO 00000KT 10SM CLR M03/M04 A3012 RMK AO2 SLP205 T10331044 $
KEVV 110854Z AUTO 00000KT 10SM CLR M03/M04 A3014 RMK AO2 SLP208 T10331044 56005 $
KEVV 110754Z AUTO 00000KT 10SM CLR M03/M04 A3014 RMK AO2 SLP211 T10281039 $
KEVV 110654Z AUTO 24004KT 10SM CLR M03/M04 A3014 RMK AO2 SLP212 T10281044 $
KEVV 110554Z AUTO 00000KT 10SM CLR M02/M04 A3015 RMK AO2 SLP214 T10171044 10044 21017 400721072 51009 $
KEVV 110454Z AUTO 31005KT 10SM CLR 03/M03 A3015 RMK AO2 SLP212 T00281033 $
KEVV 110354Z 30004KT 10SM CLR 04/M03 A3014 RMK AO2 SLP208 T00391028 $
KEVV 110254Z 26003KT 10SM CLR 01/M03 A3013 RMK AO2 SLP205 T00061028 51016 $
KEVV 110154Z 27004KT 10SM CLR 01/M03 A3011 RMK AO2 SLP201 T00061033 $
KEVV 110054Z 25003KT 10SM CLR 03/M03 A3010 RMK AO2 SLP196 T00281033 $
KEVV 102354Z 00000KT 10SM CLR 03/M04 A3008 RMK AO2 SLP190 T00281039 10072 20022 53018 $
KEVV 102254Z 22006KT 10SM CLR 03/M04 A3005 RMK AO2 SLP180 T00281039 $
KEVV 102154Z 22009KT 10SM CLR 06/M03 A3003 RMK AO2 SLP174 T00611033 $
KEVV 102054Z AUTO 22014G20KT 10SM CLR 07/M04 A3002 RMK AO2 SLP170 T00721039 55023 $
KEVV 101954Z 20013KT 10SM BKN055 06/M04 A3002 RMK AO2 SLP170 T00561044 $
KEVV 101854Z 20015G25KT 10SM CLR 05/M05 A3004 RMK AO2 PK WND 21026/1831 SLP177 T00501050 $
KEVV 101754Z 19015G23KT 10SM CLR 04/M05 A3009 RMK AO2 PK WND 22028/1724 SLP193 T00391050 10039 21067 58034 $
KEVV 101654Z 20015G23KT 10SM CLR 02/M06 A3013 RMK AO2 SLP208 T00221056 $
KEVV 101554Z 21014G21KT 10SM CLR 01/M06 A3018 RMK AO2 SLP224 T00061056 $
KEVV 101454Z 21012KT 10SM CLR M02/M06 A3019 RMK AO2 SLP228 T10171056 58005 $
KEVV 101354Z 22007KT 10SM CLR M03/M06 A3020 RMK AO2 SLP231 T10331061 $
KEVV 101254Z 21007KT 10SM SCT110 M04/M07 A3020 RMK AO2 SLP232 T10441067 $
KEVV 101154Z 21006KT 10SM CLR M07/M09 A3021 RMK AO2 SLP234 T10671089 11044 21072 55002 $
KEVV 101054Z AUTO 21004KT 10SM CLR M07/M09 A3020 RMK AO2 SLP233 T10671089 $